Time;durP1;ratioP1;P1;durP2;ratioP2;P2;SDS_P1;SDS_P2;PMS_P1;PMS_P2;Temp;Humidity;BMP_temperature;BMP_pressure;BME280_temperature;BME280_humidity;BME280_pressure;Samples;Min_cycle;Max_cycle;Signal;HPM_P1;HPM_P2
2024/05/02 00:00:49;;;;;;;8.82;4.10;;;;;;;13.10;82.30;99386.84;5367927;26;19991;-94
2024/05/02 00:03:14;;;;;;;7.68;4.25;;;;;;;13.02;82.84;99373.97;5367547;26;20019;-94
2024/05/02 00:05:40;;;;;;;10.85;4.63;;;;;;;13.14;82.41;99382.50;5368131;26;19999;-94
2024/05/02 00:08:06;;;;;;;11.85;3.90;;;;;;;13.08;82.53;99375.53;5367150;26;20007;-94
2024/05/02 00:10:32;;;;;;;9.82;4.50;;;;;;;12.98;82.81;99355.91;5367899;26;19991;-94
2024/05/02 00:12:57;;;;;;;7.93;3.85;;;;;;;12.99;82.51;99358.31;5368020;26;20006;-92
2024/05/02 00:15:26;;;;;;;8.23;3.88;;;;;;;13.05;83.09;99368.00;5368181;26;19991;-93
2024/05/02 00:17:52;;;;;;;6.45;3.80;;;;;;;13.17;82.25;99372.19;5369236;26;20003;-92
2024/05/02 00:20:17;;;;;;;6.35;4.05;;;;;;;13.06;82.66;99358.78;5367057;26;19998;-93
2024/05/02 00:22:43;;;;;;;7.28;3.97;;;;;;;13.14;82.47;99366.28;5367624;26;19995;-94
2024/05/02 00:25:09;;;;;;;7.70;3.90;;;;;;;13.09;82.57;99343.88;5366643;26;20005;-93
2024/05/02 00:27:34;;;;;;;7.53;3.67;;;;;;;13.11;82.72;99345.22;5391023;26;19994;-93
2024/05/02 00:30:00;;;;;;;7.50;3.88;;;;;;;13.11;82.64;99334.41;5402800;26;20002;-94
2024/05/02 00:32:26;;;;;;;6.28;4.00;;;;;;;13.09;82.93;99335.78;5402327;26;20408;-93
2024/05/02 00:34:51;;;;;;;5.65;3.97;;;;;;;13.08;82.88;99328.78;5403263;26;20330;-94
2024/05/02 00:37:17;;;;;;;7.40;3.80;;;;;;;13.08;82.83;99331.47;5403388;26;19994;-94
2024/05/02 00:39:44;;;;;;;7.93;3.35;;;;;;;12.86;83.53;99319.22;5404773;26;20013;-94
2024/05/02 00:42:09;;;;;;;6.95;3.95;;;;;;;12.82;83.74;99320.09;5406409;26;20009;-94
2024/05/02 00:44:35;;;;;;;4.85;3.30;;;;;;;12.82;83.90;99320.88;5437025;26;19998;-94
2024/05/02 00:47:01;;;;;;;5.88;3.70;;;;;;;12.94;83.24;99334.84;5407941;26;20036;-94
2024/05/02 00:49:27;;;;;;;7.50;3.20;;;;;;;12.79;82.59;99299.06;5406088;26;20002;-94
2024/05/02 00:51:54;;;;;;;5.10;3.38;;;;;;;12.96;81.77;99312.13;5405832;26;20440;-95
2024/05/02 00:54:20;;;;;;;4.20;3.28;;;;;;;13.05;81.57;99315.81;5406001;26;20005;-94
2024/05/02 00:56:46;;;;;;;5.45;4.05;;;;;;;12.83;83.71;99313.63;5435936;26;20001;-92
2024/05/02 00:59:12;;;;;;;11.10;4.40;;;;;;;12.72;83.58;99307.47;5406514;26;19990;-92
2024/05/02 01:01:37;;;;;;;9.38;8.13;;;;;;;12.74;84.09;99314.22;5406479;26;20002;-95
2024/05/02 01:04:03;;;;;;;8.65;4.30;;;;;;;12.81;83.17;99307.69;5407550;26;20018;-92
2024/05/02 01:06:30;;;;;;;6.68;4.15;;;;;;;13.05;83.00;99334.72;5406944;26;19990;-92
2024/05/02 01:08:57;;;;;;;5.07;3.75;;;;;;;12.90;82.50;99304.06;5407262;26;19998;-93
2024/05/02 01:11:23;;;;;;;5.75;3.25;;;;;;;12.89;82.99;99312.47;5406646;26;19994;-91
2024/05/02 01:13:48;;;;;;;6.10;3.53;;;;;;;12.81;83.07;99305.78;5406818;26;20028;-93
2024/05/02 01:16:14;;;;;;;6.90;5.07;;;;;;;12.92;83.72;99339.72;5406859;26;20070;-93
2024/05/02 01:18:39;;;;;;;11.07;7.78;;;;;;;12.74;83.94;99322.34;5405438;26;20066;-94
2024/05/02 01:21:05;;;;;;;22.27;8.27;;;;;;;12.84;84.59;99337.63;5405478;26;19990;-93
2024/05/02 01:23:31;;;;;;;14.30;8.60;;;;;;;12.69;84.95;99332.38;5406364;26;20009;-95
2024/05/02 01:25:57;;;;;;;14.05;7.40;;;;;;;12.58;84.07;99299.25;5405779;26;20014;-94
2024/05/02 01:28:23;;;;;;;14.23;8.30;;;;;;;12.74;84.17;99319.63;5406773;26;19991;-94
2024/05/02 01:30:49;;;;;;;13.65;8.30;;;;;;;12.59;85.32;99300.03;5405679;26;19990;-92
2024/05/02 01:33:16;;;;;;;12.48;7.93;;;;;;;12.53;85.62;99307.38;5435112;26;19998;-94
2024/05/02 01:35:51;;;;;;;12.55;9.13;;;;;;;12.58;85.65;99298.44;5404901;26;20062;-94
2024/05/02 01:38:16;;;;;;;17.17;7.93;;;;;;;12.65;85.21;99309.72;5409133;26;20022;-94
2024/05/02 01:40:44;;;;;;;11.05;7.32;;;;;;;12.58;85.00;99293.03;5405607;26;19998;-95
2024/05/02 01:43:11;;;;;;;15.45;7.78;;;;;;;12.57;84.96;99292.22;5404616;26;19998;-94
2024/05/02 01:45:37;;;;;;;10.20;6.95;;;;;;;12.64;84.90;99306.22;5433653;26;20419;-94
2024/05/02 01:48:02;;;;;;;10.23;7.28;;;;;;;12.57;85.13;99302.22;5404980;26;19998;-93
2024/05/02 01:50:28;;;;;;;10.07;6.40;;;;;;;12.68;84.26;99301.84;5404328;26;20062;-94
2024/05/02 01:52:54;;;;;;;9.32;7.18;;;;;;;12.80;83.84;99303.34;5405523;26;20002;-92
2024/05/02 01:55:19;;;;;;;10.73;6.68;;;;;;;12.88;83.55;99314.34;5404602;26;20001;-94
2024/05/02 01:57:45;;;;;;;10.25;7.20;;;;;;;12.74;83.19;99278.28;5405037;26;20431;-93
2024/05/02 02:00:11;;;;;;;11.95;6.85;;;;;;;12.90;83.10;99298.66;5404742;26;19998;-93
2024/05/02 02:02:37;;;;;;;11.80;7.20;;;;;;;13.01;83.23;99302.09;5404880;26;19990;-93
2024/05/02 02:05:03;;;;;;;10.57;6.68;;;;;;;13.05;83.05;99294.19;5405324;26;19997;-93
2024/05/02 02:07:29;;;;;;;10.63;7.07;;;;;;;13.12;83.13;99311.69;5406154;26;20002;-93
2024/05/02 02:09:55;;;;;;;9.43;7.00;;;;;;;12.94;82.71;99267.25;5434252;26;19998;-93
2024/05/02 02:12:20;;;;;;;11.60;7.85;;;;;;;13.06;82.55;99285.00;5405680;26;19994;-94
2024/05/02 02:14:49;;;;;;;13.40;7.30;;;;;;;13.06;82.50;99296.63;5405751;26;19994;-92
2024/05/02 02:17:15;;;;;;;10.32;7.57;;;;;;;13.16;82.19;99298.41;5406711;26;20038;-93
2024/05/02 02:19:41;;;;;;;13.00;7.70;;;;;;;13.12;82.08;99294.66;5434702;26;19994;-93
2024/05/02 02:22:08;;;;;;;14.25;7.80;;;;;;;13.05;82.55;99280.66;5404891;26;20009;-94
2024/05/02 02:24:34;;;;;;;18.25;8.88;;;;;;;13.18;82.73;99290.81;5434431;26;20001;-94
2024/05/02 02:26:59;;;;;;;16.33;9.63;;;;;;;13.06;82.72;99266.88;5389005;26;19994;-94
2024/05/02 02:29:25;;;;;;;14.32;7.80;;;;;;;13.14;82.89;99287.88;5369892;26;20005;-92
2024/05/02 02:31:51;;;;;;;14.70;7.90;;;;;;;12.97;83.23;99257.81;5370107;26;20001;-94
2024/05/02 02:34:16;;;;;;;12.13;7.78;;;;;;;13.25;83.70;99293.16;5368426;26;19991;-92
2024/05/02 02:36:42;;;;;;;14.18;7.80;;;;;;;13.02;83.62;99260.44;5369931;26;19987;-93
2024/05/02 02:39:07;;;;;;;13.75;8.38;;;;;;;13.19;83.28;99280.81;5370122;26;19987;-93
2024/05/02 02:41:34;;;;;;;18.50;8.65;;;;;;;13.11;83.50;99266.84;5369551;26;19998;-94
2024/05/02 02:44:01;;;;;;;14.20;7.80;;;;;;;13.25;83.56;99288.56;5397697;26;19994;-94
2024/05/02 02:46:26;;;;;;;15.82;9.50;;;;;;;13.20;83.88;99287.81;5368847;26;20028;-94
2024/05/02 02:48:52;;;;;;;17.30;10.13;;;;;;;13.04;84.02;99252.03;5369598;26;19991;-94
2024/05/02 02:51:17;;;;;;;15.15;9.05;;;;;;;13.14;84.18;99268.16;5370516;26;19987;-92
2024/05/02 02:53:43;;;;;;;17.05;9.75;;;;;;;13.19;84.31;99275.41;5369601;26;19991;-94
2024/05/02 02:56:09;;;;;;;19.30;10.82;;;;;;;12.94;85.56;99259.16;5369735;26;19986;-93
2024/05/02 02:58:36;;;;;;;14.35;10.50;;;;;;;12.88;86.54;99248.69;5398815;26;20417;-93
2024/05/02 03:01:01;;;;;;;25.30;11.35;;;;;;;12.97;86.96;99278.59;5370115;26;19997;-93
2024/05/02 03:03:27;;;;;;;17.05;10.50;;;;;;;12.86;87.36;99262.47;5369178;26;19991;-94
2024/05/02 03:05:53;;;;;;;14.65;9.65;;;;;;;12.68;87.30;99249.72;5370951;26;19998;-94
2024/05/02 03:08:18;;;;;;;16.15;8.70;;;;;;;12.83;87.85;99275.78;5369832;26;19994;-92
2024/05/02 03:10:44;;;;;;;13.15;9.25;;;;;;;12.90;87.11;99285.16;5369954;26;19994;-93
2024/05/02 03:13:10;;;;;;;12.73;9.57;;;;;;;12.89;86.77;99291.66;5399718;26;20002;-93
2024/05/02 03:15:36;;;;;;;18.52;10.02;;;;;;;12.78;86.09;99275.81;5370111;26;19987;-93
2024/05/02 03:18:02;;;;;;;13.63;9.10;;;;;;;12.71;86.68;99265.34;5369556;26;19991;-93
2024/05/02 03:20:27;;;;;;;12.55;8.82;;;;;;;12.77;87.33;99271.53;5368216;26;19995;-94
2024/05/02 03:22:53;;;;;;;14.07;8.43;;;;;;;12.83;86.23;99279.28;5369070;26;19995;-93
2024/05/02 03:25:19;;;;;;;14.18;8.48;;;;;;;12.74;86.77;99272.88;5368325;26;19983;-94
2024/05/02 03:27:45;;;;;;;13.27;9.48;;;;;;;12.64;86.98;99263.00;5368689;26;19995;-94
2024/05/02 03:30:11;;;;;;;16.48;9.02;;;;;;;12.80;85.81;99273.63;5397482;26;20019;-93
2024/05/02 03:32:40;;;;;;;14.75;9.57;;;;;;;12.80;86.34;99270.94;5368525;26;20002;-91
2024/05/02 03:35:06;;;;;;;20.15;10.15;;;;;;;12.95;85.22;99278.91;5397983;26;19991;-94
2024/05/02 03:37:32;;;;;;;14.68;9.80;;;;;;;13.10;84.73;99294.94;5368316;26;20009;-94
2024/05/02 03:39:57;;;;;;;19.42;10.43;;;;;;;12.81;85.96;99259.84;5367767;26;20009;-96
2024/05/02 03:42:23;;;;;;;18.35;9.50;;;;;;;12.81;85.63;99261.75;5368536;26;20031;-94
2024/05/02 03:44:49;;;;;;;15.25;9.15;;;;;;;12.74;86.20;99267.47;5367817;26;20335;-92
2024/05/02 03:47:14;;;;;;;19.60;10.45;;;;;;;12.93;85.38;99289.19;5368309;26;19999;-93
2024/05/02 03:49:41;;;;;;;18.15;11.05;;;;;;;12.92;85.87;99290.28;5367072;26;20039;-94
2024/05/02 03:52:07;;;;;;;18.67;11.07;;;;;;;12.70;86.64;99258.31;5368470;26;19995;-94
2024/05/02 03:54:33;;;;;;;28.42;12.20;;;;;;;12.71;86.23;99260.75;5367160;26;20002;-94
2024/05/02 03:56:59;;;;;;;23.73;12.90;;;;;;;12.89;86.53;99286.25;5396262;26;20314;-94
2024/05/02 03:59:25;;;;;;;21.33;11.52;;;;;;;12.97;86.89;99284.00;5367041;26;20003;-93
2024/05/02 04:01:50;;;;;;;18.58;10.77;;;;;;;12.97;85.87;99279.44;5367894;26;20006;-92
2024/05/02 04:04:16;;;;;;;21.52;11.18;;;;;;;12.97;84.23;99254.28;5367404;26;20372;-93
2024/05/02 04:06:42;;;;;;;16.70;11.60;;;;;;;13.06;85.63;99280.41;5367194;26;20071;-92
2024/05/02 04:09:07;;;;;;;20.08;11.65;;;;;;;13.12;85.37;99265.72;5367052;26;19991;-93
2024/05/02 04:11:34;;;;;;;17.15;10.27;;;;;;;13.29;84.26;99280.72;5367846;26;19999;-93
2024/05/02 04:14:03;;;;;;;18.30;10.88;;;;;;;13.15;84.95;99269.75;5366774;26;19991;-91
2024/05/02 04:16:28;;;;;;;24.60;10.40;;;;;;;13.10;86.27;99272.53;5370867;26;20131;-92
2024/05/02 04:18:54;;;;;;;16.35;10.82;;;;;;;13.19;85.13;99272.69;5371692;26;20038;-93
2024/05/02 04:21:20;;;;;;;15.38;9.50;;;;;;;13.17;84.09;99255.94;5371136;26;19991;-93
2024/05/02 04:23:45;;;;;;;16.58;10.57;;;;;;;13.26;83.89;99265.84;5371722;26;20038;-92
2024/05/02 04:26:11;;;;;;;16.38;9.95;;;;;;;13.52;83.40;99295.31;5373919;26;19999;-93
2024/05/02 04:28:37;;;;;;;15.77;9.63;;;;;;;13.28;84.45;99266.38;5407005;26;20005;-92
2024/05/02 04:31:04;;;;;;;13.95;9.95;;;;;;;13.42;84.50;99288.13;5407190;26;20009;-92
2024/05/02 04:33:30;;;;;;;14.13;9.02;;;;;;;13.48;84.24;99280.75;5434827;26;20077;-90
2024/05/02 04:35:55;;;;;;;13.15;8.85;;;;;;;13.44;83.40;99263.50;5435042;26;20005;-93
2024/05/02 04:38:21;;;;;;;12.20;8.73;;;;;;;13.47;82.41;99261.03;5407563;26;20009;-92
2024/05/02 04:40:47;;;;;;;13.35;8.02;;;;;;;13.60;83.31;99281.13;5406602;26;19987;-94
2024/05/02 04:43:13;;;;;;;15.18;9.13;;;;;;;13.37;84.39;99257.66;5436320;26;20429;-94
2024/05/02 04:45:48;;;;;;;15.15;9.75;;;;;;;13.18;84.77;99241.31;5437296;26;19994;-96
2024/05/02 04:48:13;;;;;;;20.27;10.95;;;;;;;13.47;84.52;99271.03;5408455;26;19998;-95
2024/05/02 04:50:39;;;;;;;17.85;11.40;;;;;;;13.35;84.27;99247.09;5407750;26;19990;-94
2024/05/02 04:53:05;;;;;;;16.67;11.48;;;;;;;13.34;85.69;99242.78;5406453;26;20042;-94
2024/05/02 04:55:31;;;;;;;14.00;10.50;;;;;;;13.51;84.99;99270.16;5435809;26;20013;-95
2024/05/02 04:57:57;;;;;;;16.67;10.43;;;;;;;13.60;83.48;99273.03;5407229;26;19997;-93
2024/05/02 05:00:23;;;;;;;16.35;10.70;;;;;;;13.57;83.91;99243.84;5407242;26;19994;-94
2024/05/02 05:02:49;;;;;;;17.05;10.57;;;;;;;13.82;82.46;99250.00;5408076;26;19990;-94
2024/05/02 05:05:14;;;;;;;16.58;9.85;;;;;;;13.83;81.84;99249.69;5405727;26;19994;-92
2024/05/02 05:07:40;;;;;;;14.05;9.80;;;;;;;13.90;80.63;99252.03;5406764;26;20059;-95
2024/05/02 05:10:06;;;;;;;15.00;9.93;;;;;;;13.99;79.79;99269.25;5405673;26;20078;-92
2024/05/02 05:12:32;;;;;;;14.13;9.05;;;;;;;13.99;81.27;99268.44;5435070;26;20002;-92
2024/05/02 05:14:57;;;;;;;19.95;8.80;;;;;;;13.75;80.94;99231.41;5405798;26;20005;-92
2024/05/02 05:17:35;;;;;;;13.45;7.97;;;;;;;13.98;80.82;99247.88;5436757;26;19994;-93
2024/05/02 05:20:04;;;;;;;11.43;7.05;;;;;;;14.27;80.33;99263.94;5408271;26;19994;-94
2024/05/02 05:22:29;;;;;;;11.05;6.50;;;;;;;14.14;80.26;99251.94;5415022;26;20111;-93
2024/05/02 05:24:55;;;;;;;8.30;5.70;;;;;;;14.34;79.87;99267.88;5405403;26;20010;-93
2024/05/02 05:27:28;;;;;;;10.07;6.10;;;;;;;14.26;79.21;99249.59;5402033;26;19995;-94
2024/05/02 05:29:54;;;;;;;10.30;5.53;;;;;;;14.33;79.22;99250.00;5460859;26;19995;-94
2024/05/02 05:32:19;;;;;;;8.40;5.25;;;;;;;14.25;79.80;99249.88;5398764;26;20003;-93
2024/05/02 05:34:46;;;;;;;12.40;6.97;;;;;;;14.24;79.68;99249.09;5428767;26;19999;-94
2024/05/02 05:37:27;;;;;;;10.10;5.63;;;;;;;14.30;78.94;99233.56;5399613;26;20026;-93
2024/05/02 05:39:55;;;;;;;11.05;5.70;;;;;;;14.50;78.46;99254.88;5401776;26;19991;-92
2024/05/02 05:42:36;;;;;;;15.65;5.75;;;;;;;14.48;79.51;99256.28;5400523;26;19998;-96
2024/05/02 05:45:02;;;;;;;21.58;7.63;;;;;;;14.52;78.98;99244.53;5429838;26;19995;-93
2024/05/02 05:47:30;;;;;;;6.82;5.43;;;;;;;14.55;78.01;99230.44;5401857;26;19995;-95
2024/05/02 05:50:08;;;;;;;17.67;6.90;;;;;;;14.82;77.64;99261.41;5401231;26;19998;-95
2024/05/02 05:52:34;;;;;;;10.15;5.50;;;;;;;14.56;77.65;99223.09;5397437;26;19995;-93
2024/05/02 05:55:08;;;;;;;12.90;6.10;;;;;;;14.63;77.75;99237.09;5368792;26;20334;-95
2024/05/02 05:57:39;;;;;;;12.73;7.18;;;;;;;14.78;77.84;99232.47;5369664;26;19999;-94
2024/05/02 06:00:10;;;;;;;13.38;6.45;;;;;;;14.73;77.47;99239.59;5366541;26;19988;-94
2024/05/02 06:02:39;;;;;;;14.63;5.82;;;;;;;14.96;76.88;99245.13;5339105;26;20432;-94
2024/05/02 06:05:05;;;;;;;12.32;5.45;;;;;;;15.08;76.35;99234.59;5335856;26;20003;-94
2024/05/02 06:07:30;;;;;;;13.00;5.20;;;;;;;15.33;74.78;99235.97;5336551;26;20019;-94
2024/05/02 06:09:58;;;;;;;7.65;5.20;;;;;;;15.34;74.18;99234.09;5364144;26;19984;-95
2024/05/02 06:13:03;;;;;;;11.93;6.13;;;;;;;15.27;74.55;99226.38;5336654;26;20583;-91
2024/05/02 06:15:41;;;;;;;8.85;5.43;;;;;;;15.11;76.42;99215.00;5377991;26;20041;-95
2024/05/02 06:18:07;;;;;;;13.77;6.68;;;;;;;15.11;77.40;99233.19;5366375;26;20045;-91
2024/05/02 06:20:33;;;;;;;13.55;5.82;;;;;;;15.15;75.63;99212.50;5361084;26;20007;-93
2024/05/02 06:22:59;;;;;;;9.55;6.43;;;;;;;15.30;76.58;99233.09;5367632;26;20015;-92
2024/05/02 06:25:26;;;;;;;14.30;6.50;;;;;;;15.28;75.75;99219.81;5363381;26;20006;-93
2024/05/02 06:27:54;;;;;;;22.48;10.13;;;;;;;15.63;76.52;99231.00;5394493;26;19999;-92
2024/05/02 06:30:21;;;;;;;10.23;5.70;;;;;;;15.59;74.83;99207.50;5394438;26;19996;-93
2024/05/02 06:32:47;;;;;;;9.57;5.88;;;;;;;15.70;75.31;99209.66;5391682;26;20011;-92
2024/05/02 06:35:15;;;;;;;13.75;6.28;;;;;;;16.03;75.37;99238.56;5363203;26;20426;-91
2024/05/02 06:37:41;;;;;;;9.70;5.68;;;;;;;16.08;73.48;99227.56;5393303;26;19995;-94
2024/05/02 06:40:17;;;;;;;12.65;6.00;;;;;;;16.30;72.84;99232.19;5421717;26;20001;-94
2024/05/02 06:42:42;;;;;;;15.07;6.80;;;;;;;16.34;72.47;99223.13;5367040;26;20006;-92
2024/05/02 06:45:16;;;;;;;10.02;6.15;;;;;;;16.53;71.80;99232.97;5362711;26;19995;-93
2024/05/02 06:47:51;;;;;;;9.32;6.38;;;;;;;16.40;72.19;99212.13;5457935;26;20036;-96
2024/05/02 06:50:20;;;;;;;10.70;5.88;;;;;;;16.61;70.75;99213.19;5411545;26;20044;-93
2024/05/02 06:56:06;;;;;;;12.63;5.80;;;;;;;16.92;69.92;99220.56;5412971;26;19995;-96
2024/05/02 06:58:35;;;;;;;13.45;5.72;;;;;;;17.04;69.35;99217.25;5467406;26;20027;-96
2024/05/02 07:01:35;;;;;;;12.63;6.07;;;;;;;17.04;69.02;99198.22;5433790;26;19994;-96
2024/05/02 07:04:15;;;;;;;;;;;;;;;;;;;;;
2024/05/02 07:06:42;;;;;;;9.98;4.68;;;;;;;17.26;67.25;99197.28;5399863;26;20003;-96
2024/05/02 07:09:28;;;;;;;;;;;;;;;;;;;;;
2024/05/02 07:11:55;;;;;;;10.73;5.18;;;;;;;17.40;66.35;99191.72;5419684;26;20531;-96
2024/05/02 07:14:33;;;;;;;11.65;5.13;;;;;;;17.48;67.66;99205.31;5366535;26;19991;-96
2024/05/02 07:17:01;;;;;;;9.18;4.30;;;;;;;17.38;66.51;99194.75;5369436;26;19996;-95
2024/05/02 07:19:29;;;;;;;8.38;3.53;;;;;;;17.35;66.57;99200.84;5398442;26;20011;-96
2024/05/02 07:22:14;;;;;;;;;;;;;;;;;;;;;
2024/05/02 07:24:44;;;;;;;11.05;5.10;;;;;;;17.36;67.39;99200.50;5394351;26;20002;-96
2024/05/02 07:27:10;;;;;;;13.18;5.85;;;;;;;17.31;68.13;99208.81;5363502;26;20000;-95
2024/05/02 07:29:38;;;;;;;12.50;6.05;;;;;;;17.43;67.94;99231.91;5336813;26;19987;-96
2024/05/02 07:32:07;;;;;;;11.80;6.03;;;;;;;17.31;67.88;99213.47;5336339;26;19999;-95
2024/05/02 07:34:34;;;;;;;14.85;5.90;;;;;;;17.41;67.96;99225.97;5363505;26;20327;-95
2024/05/02 07:37:00;;;;;;;12.85;6.15;;;;;;;17.41;67.44;99223.25;5364765;26;20387;-93
2024/05/02 07:39:28;;;;;;;22.73;13.48;;;;;;;17.26;67.58;99206.25;5333159;26;20029;-95
2024/05/02 07:41:56;;;;;;;25.35;13.40;;;;;;;17.45;68.27;99235.94;5340055;26;19991;-95
2024/05/02 07:44:23;;;;;;;13.98;5.55;;;;;;;17.24;67.29;99211.19;5341629;26;19996;-96
2024/05/02 07:46:54;;;;;;;9.27;4.75;;;;;;;17.19;66.72;99194.25;5370653;26;20002;-95
2024/05/02 07:49:20;;;;;;;5.70;4.50;;;;;;;17.21;66.49;99211.84;5388859;26;20019;-95
2024/05/02 07:51:51;;;;;;;6.78;4.53;;;;;;;17.41;66.16;99229.50;5440666;26;19996;-96
2024/05/02 07:54:46;;;;;;;11.40;3.65;;;;;;;17.13;65.33;99190.84;5412602;26;20007;-95
2024/05/02 07:57:46;;;;;;;10.52;4.47;;;;;;;17.01;64.12;99198.81;5448724;26;20006;-96
2024/05/02 08:00:14;;;;;;;6.88;2.50;;;;;;;17.06;64.36;99215.00;5366552;26;19999;-96
2024/05/02 08:02:58;;;;;;;4.35;2.40;;;;;;;16.90;64.10;99203.75;5370701;26;19996;-96
2024/05/02 08:05:50;;;;;;;9.05;4.72;;;;;;;17.04;64.78;99237.09;5337530;26;19997;-96
2024/05/02 08:08:20;;;;;;;;;;;;;;;16.93;65.13;99228.41;5338064;26;20073;-95
2024/05/02 08:10:54;;;;;;;6.25;2.00;;;;;;;16.65;64.67;99192.44;5392489;26;19925;-96
2024/05/02 08:20:19;;;;;;;3.72;1.80;;;;;;;16.65;59.88;99187.00;5321609;26;20048;-95
2024/05/02 08:22:45;;;;;;;5.05;1.67;;;;;;;16.80;62.02;99217.59;5236038;27;20001;-93
2024/05/02 08:25:17;;;;;;;5.78;1.85;;;;;;;16.82;61.01;99213.47;5263650;27;19998;-93
2024/05/02 08:28:10;;;;;;;9.80;1.58;;;;;;;16.66;58.80;99188.56;5235466;27;20440;-95
2024/05/02 08:30:39;;;;;;;5.88;3.25;;;;;;;17.02;56.66;99198.50;5264665;26;20005;-91
2024/05/02 08:33:05;;;;;;;5.00;2.00;;;;;;;17.32;55.88;99206.91;5287114;26;19990;-95
2024/05/02 08:35:33;;;;;;;4.10;2.00;;;;;;;17.31;56.25;99178.09;5432587;26;19997;-94
2024/05/02 08:38:17;;;;;;;6.13;2.08;;;;;;;17.43;57.32;99191.06;5433483;26;19995;-95
2024/05/02 08:41:14;;;;;;;7.50;2.13;;;;;;;17.64;57.65;99211.13;5404463;26;20018;-96
2024/05/02 08:43:49;;;;;;;4.25;1.60;;;;;;;17.88;54.45;99204.41;5428531;26;19995;-93
2024/05/02 08:46:18;;;;;;;6.10;2.10;;;;;;;17.94;53.87;99201.19;5407514;26;20045;-92
2024/05/02 08:52:44;;;;;;;8.30;2.85;;;;;;;17.70;53.20;99171.72;5386571;26;20000;-91
2024/05/02 08:55:15;;;;;;;5.75;1.80;;;;;;;17.85;53.71;99216.75;5307302;26;19996;-94
2024/05/02 08:57:41;;;;;;;4.43;1.67;;;;;;;17.54;52.92;99179.56;5329515;26;19997;-92
2024/05/02 09:00:54;;;;;;;7.20;2.35;;;;;;;17.56;54.40;99179.25;5300697;26;20073;-92
2024/05/02 09:03:21;;;;;;;4.30;1.55;;;;;;;17.73;56.63;99181.97;5230771;27;20451;-90
2024/05/02 09:05:50;;;;;;;4.65;1.50;;;;;;;17.92;56.57;99200.72;5284794;27;19995;-91
2024/05/02 09:08:24;;;;;;;6.75;2.85;;;;;;;17.98;57.95;99187.75;5286440;26;20433;-92
2024/05/02 09:10:52;;;;;;;10.93;3.33;;;;;;;18.05;57.86;99190.78;5286216;27;19999;-91
2024/05/02 09:13:28;;;;;;;6.50;2.40;;;;;;;18.11;57.57;99180.50;5256257;27;19990;-91
2024/05/02 09:16:03;;;;;;;3.88;1.60;;;;;;;18.19;58.57;99196.03;5283861;27;19998;-92
2024/05/02 09:19:11;;;;;;;9.38;3.35;;;;;;;18.20;59.02;99173.13;5255474;27;19998;-91
2024/05/02 09:21:40;;;;;;;3.92;2.15;;;;;;;18.13;58.43;99176.34;5212563;27;19998;-94
2024/05/02 09:24:06;;;;;;;5.28;1.90;;;;;;;18.17;59.70;99177.28;5327749;26;19995;-93
2024/05/02 09:26:34;;;;;;;8.13;1.80;;;;;;;18.20;58.22;99194.13;5300687;26;19997;-92
2024/05/02 09:29:12;;;;;;;7.10;1.60;;;;;;;18.27;57.97;99165.25;5302126;26;20522;-93
2024/05/02 09:31:38;;;;;;;5.90;1.90;;;;;;;18.38;56.31;99171.16;5301083;26;20020;-92
2024/05/02 09:34:09;;;;;;;4.93;1.80;;;;;;;18.58;56.65;99172.38;5379424;26;20014;-92
2024/05/02 09:36:41;;;;;;;5.78;2.03;;;;;;;18.77;56.04;99191.06;5438683;26;19991;-93
2024/05/02 09:39:11;;;;;;;6.75;2.05;;;;;;;18.88;55.23;99166.97;5404980;26;20045;-93
2024/05/02 09:41:42;;;;;;;5.47;1.60;;;;;;;18.77;53.89;99166.50;5429083;26;20011;-93
2024/05/02 09:44:08;;;;;;;4.88;1.83;;;;;;;18.78;53.52;99179.88;5423784;26;19995;-93
2024/05/02 09:46:34;;;;;;;4.25;1.40;;;;;;;18.90;54.22;99156.53;5430364;26;20497;-94
2024/05/02 09:49:00;;;;;;;5.70;1.98;;;;;;;18.96;53.23;99152.47;5400023;26;20003;-93
2024/05/02 09:51:29;;;;;;;4.20;1.90;;;;;;;19.20;53.35;99167.44;5400331;26;20457;-93
2024/05/02 09:53:55;;;;;;;5.40;1.90;;;;;;;19.23;52.86;99161.31;5401238;26;20043;-92
2024/05/02 09:56:21;;;;;;;3.50;1.65;;;;;;;19.20;52.64;99146.41;5400416;26;19999;-92
2024/05/02 09:58:52;;;;;;;3.60;1.85;;;;;;;19.42;51.86;99153.47;5399763;26;19990;-94
2024/05/02 10:01:18;;;;;;;3.73;2.13;;;;;;;19.50;52.93;99160.00;5430008;26;20013;-92
2024/05/02 10:04:07;;;;;;;5.05;1.90;;;;;;;19.53;52.38;99140.22;5399987;26;20240;-95
2024/05/02 10:06:34;;;;;;;5.50;2.10;;;;;;;19.67;51.37;99131.75;5349477;26;20004;-92
2024/05/02 10:09:24;;;;;;;3.55;1.65;;;;;;;19.82;52.17;99144.81;5233258;27;20003;-91
2024/05/02 10:11:51;;;;;;;6.32;2.10;;;;;;;19.86;52.31;99142.19;5205359;27;20078;-93
2024/05/02 10:14:26;;;;;;;3.97;1.67;;;;;;;19.91;51.04;99118.19;5171265;27;20004;-93
2024/05/02 10:17:07;;;;;;;4.43;1.67;;;;;;;20.01;49.39;99127.91;5182162;27;19992;-92
2024/05/02 10:19:53;;;;;;;;;;;;;;;;;;;;;
2024/05/02 10:22:26;;;;;;;2.90;1.38;;;;;;;20.18;48.02;99124.19;5192555;27;20014;-92
2024/05/02 10:25:11;;;;;;;5.03;1.98;;;;;;;20.16;47.72;99145.59;5203509;27;20014;-94
2024/05/02 10:27:43;;;;;;;3.00;1.30;;;;;;;20.05;47.31;99130.78;5189954;27;20308;-92
2024/05/02 10:30:12;;;;;;;3.88;1.75;;;;;;;20.23;45.23;99136.84;5215113;27;20003;-93
2024/05/02 10:32:42;;;;;;;4.07;1.30;;;;;;;20.33;44.31;99148.13;5164046;27;20113;-93
2024/05/02 10:35:16;;;;;;;4.78;1.20;;;;;;;20.22;45.38;99140.72;5197284;27;20359;-93
2024/05/02 10:37:43;;;;;;;3.47;1.33;;;;;;;20.23;44.75;99129.44;5223404;27;20007;-90
2024/05/02 10:40:33;;;;;;;4.07;1.45;;;;;;;20.26;44.50;99127.97;5264751;26;20031;-94
2024/05/02 10:43:05;;;;;;;3.85;1.20;;;;;;;20.51;43.15;99137.00;5327831;26;20045;-91
2024/05/02 10:45:43;;;;;;;8.65;1.25;;;;;;;20.31;44.26;99116.81;5323840;26;20073;-93
2024/05/02 10:49:24;;;;;;;13.23;2.22;;;;;;;20.49;43.80;99106.47;5273419;26;19997;-95
2024/05/02 10:51:51;;;;;;;3.53;1.13;;;;;;;20.65;42.08;99109.34;5287638;27;20010;-94
2024/05/02 10:54:20;;;;;;;6.30;1.10;;;;;;;20.74;41.53;99120.97;5227067;27;19994;-93
2024/05/02 10:56:55;;;;;;;3.17;1.25;;;;;;;20.78;41.00;99111.72;5227193;27;20445;-92
2024/05/02 10:59:21;;;;;;;7.43;1.38;;;;;;;20.85;41.77;99108.41;5304525;26;19996;-94
2024/05/02 11:02:18;;;;;;;;;;;;;;;;;;;;;
2024/05/02 11:04:57;;;;;;;2.47;1.02;;;;;;;20.28;42.13;99110.09;5382173;26;19996;-94
2024/05/02 11:07:23;;;;;;;2.97;1.25;;;;;;;20.30;42.06;99137.09;5326889;26;20012;-93
2024/05/02 11:09:48;;;;;;;4.63;1.80;;;;;;;20.28;41.98;99117.50;5298847;26;20073;-93
2024/05/02 11:12:25;;;;;;;5.80;1.20;;;;;;;20.26;42.97;99128.78;5298899;26;20044;-92
2024/05/02 11:14:54;;;;;;;4.10;1.17;;;;;;;20.32;43.03;99110.22;5299947;26;20007;-96
2024/05/02 11:17:53;;;;;;;4.43;1.73;;;;;;;20.35;44.32;99112.25;5299047;26;20050;-96
2024/05/02 11:20:30;;;;;;;5.63;1.40;;;;;;;20.54;44.29;99120.72;5340907;26;20457;-93
2024/05/02 11:23:05;;;;;;;3.90;1.40;;;;;;;20.52;44.94;99113.97;5355109;26;20347;-94
2024/05/02 11:25:30;;;;;;;4.10;1.50;;;;;;;20.91;44.41;99125.41;5435792;26;19994;-91
2024/05/02 11:28:07;;;;;;;4.47;1.38;;;;;;;20.94;43.65;99111.06;5379846;26;20014;-90
2024/05/02 11:30:35;;;;;;;5.22;1.40;;;;;;;21.05;43.19;99128.59;5406035;26;19999;-89
2024/05/02 11:33:01;;;;;;;3.28;1.50;;;;;;;20.98;42.65;99118.22;5426302;26;20131;-90
2024/05/02 11:35:37;;;;;;;7.43;1.70;;;;;;;20.92;40.35;99129.75;5415310;26;20006;-95
2024/05/02 11:38:15;;;;;;;5.97;1.40;;;;;;;21.07;40.39;99123.56;5400094;26;20023;-96
2024/05/02 11:40:41;;;;;;;4.93;1.70;;;;;;;21.15;40.49;99108.94;5370040;26;20014;-95
2024/05/02 11:43:19;;;;;;;4.00;1.63;;;;;;;20.97;40.88;99105.66;5368774;26;20065;-96
2024/05/02 11:46:05;;;;;;;4.40;1.40;;;;;;;20.85;41.48;99115.84;5427988;26;20009;-96
2024/05/02 11:48:41;;;;;;;4.38;1.70;;;;;;;20.85;42.20;99124.03;5400264;26;19991;-96
2024/05/02 11:51:19;;;;;;;;;;;;;;;;;;;;;
2024/05/02 12:00:48;;;;;;;;;;;;;;;;;;;;;
2024/05/02 12:03:51;;;;;;;5.75;2.63;;;;;;;20.48;43.09;99110.31;5436797;26;19987;-96
2024/05/02 12:07:17;;;;;;;;;;;;;;;;;;;;;
2024/05/02 12:10:06;;;;;;;9.43;2.38;;;;;;;19.74;44.82;99071.94;5439723;26;19994;-96
2024/05/02 12:12:55;;;;;;;;;;;;;;;;;;;;;
2024/05/02 12:18:55;;;;;;;6.53;2.15;;;;;;;19.83;45.57;99060.91;5427852;26;19998;-96